Time;durP1;ratioP1;P1;durP2;ratioP2;P2;SDS_P1;SDS_P2;PMS_P1;PMS_P2;Temp;Humidity;BMP_temperature;BMP_pressure;BME280_temperature;BME280_humidity;BME280_pressure;Samples;Min_cycle;Max_cycle;Signal;HPM_P1;HPM_P2
2022/07/03 00:00:36;;;;;;;;;;;;;;;22.31;61.71;153263.39;1708582;84;20160;-62
2022/07/03 00:03:02;;;;;;;;;;;;;;;22.28;61.93;153255.55;1708584;84;20204;-63
2022/07/03 00:05:30;;;;;;;;;;;;;;;22.26;62.06;153251.66;1708482;84;20150;-63
2022/07/03 00:07:57;;;;;;;;;;;;;;;22.22;62.37;153241.20;1708731;84;20209;-63
2022/07/03 00:10:24;;;;;;;;;;;;;;;22.20;62.42;153235.92;1706063;84;21219;-63
2022/07/03 00:12:51;;;;;;;;;;;;;;;22.17;62.43;153228.09;1700533;84;20278;-64
2022/07/03 00:15:18;;;;;;;;;;;;;;;22.14;62.79;153221.58;1700321;84;20182;-62
2022/07/03 00:17:45;;;;;;;;;;;;;;;22.10;63.01;153209.80;1700560;84;20197;-63
2022/07/03 00:20:11;;;;;;;;;;;;;;;22.06;63.09;153199.34;1700403;84;20154;-63
2022/07/03 00:22:42;;;;;;;;;;;;;;;22.02;63.00;153191.50;1700860;83;20657;-62
2022/07/03 00:25:10;;;;;;;;;;;;;;;22.00;63.12;153184.94;1700305;84;20328;-63
2022/07/03 00:27:38;;;;;;;;;;;;;;;22.00;63.36;153184.94;1700632;84;33316;-63
2022/07/03 00:30:07;;;;;;;;;;;;;;;21.99;63.36;153183.61;1700564;84;20453;-62
2022/07/03 00:32:34;;;;;;;;;;;;;;;21.95;63.36;153173.16;1700482;84;20146;-63
2022/07/03 00:35:01;;;;;;;;;;;;;;;21.93;63.48;153167.94;1700616;84;21152;-63
2022/07/03 00:37:29;;;;;;;;;;;;;;;21.92;63.99;153165.31;1700323;84;20426;-63
2022/07/03 00:39:57;;;;;;;;;;;;;;;21.92;64.78;153164.03;1700866;84;20157;-63
2022/07/03 00:42:23;;;;;;;;;;;;;;;21.91;65.32;153162.72;1700614;84;20200;-63
2022/07/03 00:44:51;;;;;;;;;;;;;;;21.91;66.02;153162.72;1700546;84;20229;-63
2022/07/03 00:47:20;;;;;;;;;;;;;;;21.91;66.43;153162.72;1700437;84;20668;-63
2022/07/03 00:49:48;;;;;;;;;;;;;;;21.89;66.89;153157.48;1700665;83;20156;-63
2022/07/03 00:52:17;;;;;;;;;;;;;;;21.86;67.32;153150.94;1698993;84;20122;-63
2022/07/03 00:54:51;;;;;;;;;;;;;;;21.81;67.87;153137.86;1743000;81;20118;-63
2022/07/03 00:57:18;;;;;;;;;;;;;;;21.79;68.59;153131.36;1743801;82;20301;-62
2022/07/03 00:59:45;;;;;;;;;;;;;;;21.74;69.01;153119.58;1743826;82;21855;-62
2022/07/03 01:02:15;;;;;;;;;;;;;;;21.68;69.65;153103.91;1743538;82;20210;-62
2022/07/03 01:05:00;;;;;;;;;;;;;;;21.64;70.58;153093.34;1743858;82;20138;-62
2022/07/03 01:07:43;;;;;;;;;;;;;;;21.62;71.79;153089.45;1743871;82;20254;-62
2022/07/03 01:10:34;;;;;;;;;;;;;;;21.59;71.93;153082.91;1732207;82;20152;-62
2022/07/03 01:13:19;;;;;;;;;;;;;;;21.55;72.12;153072.45;1688418;85;21790;-62
2022/07/03 01:15:53;;;;;;;;;;;;;;;21.52;73.22;153064.63;1604216;88;20384;-61
2022/07/03 01:18:23;;;;;;;;;;;;;;;21.54;74.80;153068.50;1664684;85;20211;-61
2022/07/03 01:20:58;;;;;;;;;;;;;;;21.55;75.05;153071.13;1688051;85;20381;-61
2022/07/03 01:23:28;;;;;;;;;;;;;;;21.55;75.00;153071.13;1688259;85;20186;-63
2022/07/03 01:25:55;;;;;;;;;;;;;;;21.53;75.47;153065.91;1687917;85;22052;-61
2022/07/03 01:28:24;;;;;;;;;;;;;;;21.50;75.83;153058.06;1688191;85;20166;-62
2022/07/03 01:30:52;;;;;;;;;;;;;;;21.46;76.16;153050.22;1688640;85;20212;-62
2022/07/03 01:33:26;;;;;;;;;;;;;;;21.43;76.82;153041.06;1688404;85;20183;-61
2022/07/03 01:36:05;;;;;;;;;;;;;;;21.39;77.94;153031.94;1688619;85;20160;-61
2022/07/03 01:38:34;;;;;;;;;;;;;;;21.37;78.67;153026.72;1688160;85;21163;-63
2022/07/03 01:41:03;;;;;;;;;;;;;;;21.39;78.98;153030.61;1688412;85;20155;-61
2022/07/03 01:43:31;;;;;;;;;;;;;;;21.38;79.17;153028.00;1688399;85;20207;-62
2022/07/03 01:46:01;;;;;;;;;;;;;;;21.33;79.42;153016.22;1688645;85;20112;-62
2022/07/03 01:48:29;;;;;;;;;;;;;;;21.32;79.54;153013.61;1688392;85;20690;-62
2022/07/03 01:50:56;;;;;;;;;;;;;;;21.32;79.75;153013.61;1688266;84;21776;-63
2022/07/03 01:53:28;;;;;;;;;;;;;;;21.31;80.14;153011.00;1688243;85;20297;-62
2022/07/03 01:55:57;;;;;;;;;;;;;;;21.32;80.35;153014.94;1688584;85;20142;-62
2022/07/03 01:58:24;;;;;;;;;;;;;;;21.32;80.25;153013.61;1687769;85;20846;-62
2022/07/03 02:00:55;;;;;;;;;;;;;;;21.31;80.20;153011.00;1688165;84;20147;-63
2022/07/03 02:03:25;;;;;;;;;;;;;;;21.29;80.43;153005.78;1688219;85;21150;-63
2022/07/03 02:05:56;;;;;;;;;;;;;;;21.29;80.67;153005.78;1688075;85;20171;-62
2022/07/03 02:08:38;;;;;;;;;;;;;;;21.28;80.85;153004.50;1676573;84;20464;-62
2022/07/03 02:11:14;;;;;;;;;;;;;;;21.27;80.91;153000.55;1671701;85;20161;-62
2022/07/03 02:13:57;;;;;;;;;;;;;;;21.26;80.97;152999.27;1659854;86;20449;-62
2022/07/03 02:16:28;;;;;;;;;;;;;;;21.30;81.35;153008.38;1659509;86;21818;-61
2022/07/03 02:19:00;;;;;;;;;;;;;;;21.33;81.46;153016.22;1659560;86;20180;-62
2022/07/03 02:21:28;;;;;;;;;;;;;;;21.39;81.42;153030.61;1658293;86;20093;-62
2022/07/03 02:24:08;;;;;;;;;;;;;;;21.46;80.94;153050.22;1660036;86;20129;-62
2022/07/03 02:26:37;;;;;;;;;;;;;;;21.52;80.47;153063.28;1659902;86;20150;-62
2022/07/03 02:29:06;;;;;;;;;;;;;;;21.59;80.02;153082.91;1659891;86;21115;-62
2022/07/03 02:31:39;;;;;;;;;;;;;;;21.66;79.38;153099.95;1636912;86;20126;-61
2022/07/03 02:34:06;;;;;;;;;;;;;;;21.75;79.07;153123.47;1659849;86;20939;-62
2022/07/03 02:36:34;;;;;;;;;;;;;;;21.86;78.05;153149.66;1659891;86;20299;-63
2022/07/03 02:39:01;;;;;;;;;;;;;;;21.93;77.64;153167.94;1696579;83;20147;-62
2022/07/03 02:41:42;;;;;;;;;;;;;;;21.99;77.02;153183.61;1681200;84;21284;-62
2022/07/03 02:44:28;;;;;;;;;;;;;;;22.00;76.27;153184.94;1677761;84;20187;-62
2022/07/03 02:47:16;;;;;;;;;;;;;;;22.02;76.38;153191.50;1677868;85;20448;-63
2022/07/03 02:49:52;;;;;;;;;;;;;;;22.05;76.24;153198.00;1670071;85;20119;-63
2022/07/03 02:52:42;;;;;;;;;;;;;;;22.11;76.04;153212.41;1676736;85;20223;-63
2022/07/03 02:55:13;;;;;;;;;;;;;;;22.12;75.49;153215.02;1677746;85;21150;-63
2022/07/03 02:57:40;;;;;;;;;;;;;;;22.10;75.42;153209.80;1677727;85;20167;-63
2022/07/03 03:00:10;;;;;;;;;;;;;;;22.10;75.42;153209.80;1677926;85;20135;-62
2022/07/03 03:02:55;;;;;;;;;;;;;;;22.10;75.11;153209.80;1677911;85;20325;-61
2022/07/03 03:05:35;;;;;;;;;;;;;;;22.08;75.32;153204.56;1677797;85;20224;-62
2022/07/03 03:08:20;;;;;;;;;;;;;;;22.12;75.69;153215.02;1677776;85;21110;-62
2022/07/03 03:10:52;;;;;;;;;;;;;;;22.22;75.43;153241.20;1682337;85;20202;-62
2022/07/03 03:13:19;;;;;;;;;;;;;;;22.27;75.10;153254.27;1686858;85;20420;-62
2022/07/03 03:16:00;;;;;;;;;;;;;;;22.31;75.07;153264.72;1688850;85;20173;-62
2022/07/03 03:18:28;;;;;;;;;;;;;;;22.31;74.97;153264.72;1688346;85;20171;-63
2022/07/03 03:20:58;;;;;;;;;;;;;;;22.36;74.92;153276.50;1688376;85;21252;-63
2022/07/03 03:23:51;;;;;;;;;;;;;;;22.44;74.82;153296.14;1688155;85;20433;-61
2022/07/03 03:26:19;;;;;;;;;;;;;;;22.53;74.45;153319.70;1688366;85;20214;-62
2022/07/03 03:28:46;;;;;;;;;;;;;;;22.61;74.33;153340.63;1688505;85;20463;-62
2022/07/03 03:31:12;;;;;;;;;;;;;;;22.67;74.07;153355.02;1687992;85;20195;-62
2022/07/03 03:33:40;;;;;;;;;;;;;;;22.76;73.97;153377.27;1688224;85;21256;-62
2022/07/03 03:36:08;;;;;;;;;;;;;;;22.87;73.56;153406.02;1688574;85;20415;-62
2022/07/03 03:38:36;;;;;;;;;;;;;;;22.93;73.50;153420.42;1688296;85;20148;-62
2022/07/03 03:41:03;;;;;;;;;;;;;;;22.99;73.46;153436.16;1688372;85;20187;-62
2022/07/03 03:43:30;;;;;;;;;;;;;;;23.09;73.41;153460.98;1688409;85;20183;-62
2022/07/03 03:45:58;;;;;;;;;;;;;;;23.23;73.07;153495.02;1688542;85;21249;-62
2022/07/03 03:48:27;;;;;;;;;;;;;;;23.32;72.96;153518.61;1688478;85;20199;-62
2022/07/03 03:50:57;;;;;;;;;;;;;;;23.43;72.61;153547.42;1688296;85;20174;-62
2022/07/03 03:53:27;;;;;;;;;;;;;;;23.53;72.36;153570.95;1688196;85;20175;-62
2022/07/03 03:56:01;;;;;;;;;;;;;;;23.62;71.99;153594.55;1688245;85;20488;-62
2022/07/03 03:58:28;;;;;;;;;;;;;;;23.72;71.64;153620.70;1688277;85;21300;-62
2022/07/03 04:00:56;;;;;;;;;;;;;;;23.80;71.37;153639.06;1688557;85;20174;-62
2022/07/03 04:03:24;;;;;;;;;;;;;;;23.88;71.20;153661.33;1688235;85;20420;-62
2022/07/03 04:05:51;;;;;;;;;;;;;;;23.98;70.92;153684.88;1688563;85;20427;-62
2022/07/03 04:08:19;;;;;;;;;;;;;;;24.07;70.69;153707.19;1688343;85;20207;-62
2022/07/03 04:10:46;;;;;;;;;;;;;;;24.21;70.59;153743.86;1702101;83;21159;-63
2022/07/03 04:13:13;;;;;;;;;;;;;;;24.30;70.22;153767.41;1718822;83;20386;-63
2022/07/03 04:15:40;;;;;;;;;;;;;;;24.36;70.26;153781.81;1718684;83;20141;-63
2022/07/03 04:18:06;;;;;;;;;;;;;;;24.46;69.30;153806.70;1718456;83;20203;-63
2022/07/03 04:20:33;;;;;;;;;;;;;;;24.56;68.74;153832.87;1718296;83;20158;-63
2022/07/03 04:23:00;;;;;;;;;;;;;;;24.64;68.44;153852.53;1718219;83;21237;-63
2022/07/03 04:25:27;;;;;;;;;;;;;;;24.76;67.72;153882.70;1718641;83;20466;-63
2022/07/03 04:27:54;;;;;;;;;;;;;;;24.88;67.44;153914.16;1707678;83;20178;-63
2022/07/03 04:30:20;;;;;;;;;;;;;;;24.97;67.10;153936.38;1728592;82;20170;-62
2022/07/03 04:32:48;;;;;;;;;;;;;;;25.05;67.07;153954.75;1743440;82;20179;-62
2022/07/03 04:35:15;;;;;;;;;;;;;;;25.13;67.05;153977.03;1707949;82;21868;-63
2022/07/03 04:37:42;;;;;;;;;;;;;;;25.22;66.90;153997.97;1705874;84;20176;-63
2022/07/03 04:40:09;;;;;;;;;;;;;;;25.30;66.73;154018.92;1706249;84;20177;-62
2022/07/03 04:42:36;;;;;;;;;;;;;;;25.38;66.38;154039.91;1706002;84;20414;-63
2022/07/03 04:45:04;;;;;;;;;;;;;;;25.41;65.99;154046.44;1706340;84;20442;-63
2022/07/03 04:47:31;;;;;;;;;;;;;;;25.41;66.06;154047.77;1705888;84;21154;-63
2022/07/03 04:49:58;;;;;;;;;;;;;;;25.45;65.99;154058.25;1706109;84;20181;-63
2022/07/03 04:52:24;;;;;;;;;;;;;;;25.50;65.98;154068.77;1705819;84;20205;-63
2022/07/03 04:54:52;;;;;;;;;;;;;;;25.51;66.01;154071.37;1706040;84;20661;-63
2022/07/03 04:57:19;;;;;;;;;;;;;;;25.57;66.09;154088.44;1705999;84;20212;-64
2022/07/03 04:59:46;;;;;;;;;;;;;;;25.67;66.27;154112.05;1706022;84;21234;-64
2022/07/03 05:02:13;;;;;;;;;;;;;;;25.70;66.17;154121.19;1705954;84;20165;-64
2022/07/03 05:04:40;;;;;;;;;;;;;;;25.79;65.69;154142.19;1706184;84;20451;-64
2022/07/03 05:07:08;;;;;;;;;;;;;;;25.85;65.27;154157.91;1706216;83;20173;-64
2022/07/03 05:09:35;;;;;;;;;;;;;;;25.88;65.29;154165.75;1706105;84;20158;-64
2022/07/03 05:12:02;;;;;;;;;;;;;;;25.87;65.41;154164.47;1708717;84;21260;-64
2022/07/03 05:14:29;;;;;;;;;;;;;;;25.94;65.57;154181.47;1708438;82;20149;-64
2022/07/03 05:16:56;;;;;;;;;;;;;;;26.05;65.49;154207.72;1708940;82;20180;-64
2022/07/03 05:19:23;;;;;;;;;;;;;;;26.16;64.89;154236.52;1708547;84;20159;-63
2022/07/03 05:21:50;;;;;;;;;;;;;;;26.26;64.42;154262.81;1708804;84;20181;-63
2022/07/03 05:24:17;;;;;;;;;;;;;;;26.31;64.25;154275.91;1708432;84;21919;-62
2022/07/03 05:26:44;;;;;;;;;;;;;;;26.37;63.28;154289.02;1708594;84;20169;-63
2022/07/03 05:29:10;;;;;;;;;;;;;;;26.46;63.05;154312.64;1708738;84;20173;-63
2022/07/03 05:31:37;;;;;;;;;;;;;;;26.54;62.85;154333.59;1708738;84;20150;-62
2022/07/03 05:34:04;;;;;;;;;;;;;;;26.65;61.49;154359.84;1708643;84;20446;-61
2022/07/03 05:36:31;;;;;;;;;;;;;;;26.80;61.39;154399.16;1708553;84;21241;-62
2022/07/03 05:41:43;;;;;;;;;;;;;;;26.91;60.42;154425.45;1716952;83;20183;-62
2022/07/03 05:44:10;;;;;;;;;;;;;;;26.98;60.81;154443.80;1716515;83;20237;-62
2022/07/03 05:46:36;;;;;;;;;;;;;;;27.04;60.85;154459.52;1716580;83;20211;-62
2022/07/03 05:49:03;;;;;;;;;;;;;;;27.11;60.73;154476.58;1716736;83;21875;-62
2022/07/03 05:51:31;;;;;;;;;;;;;;;27.19;60.30;154497.59;1716617;83;20200;-62
2022/07/03 05:53:57;;;;;;;;;;;;;;;27.23;59.68;154508.08;1716749;83;20176;-61
2022/07/03 05:56:24;;;;;;;;;;;;;;;27.26;59.21;154514.61;1716814;83;20148;-60
2022/07/03 05:58:51;;;;;;;;;;;;;;;27.30;60.44;154526.44;1716848;83;20196;-62
2022/07/03 06:01:18;;;;;;;;;;;;;;;27.28;60.47;154521.19;1716698;83;21245;-61
2022/07/03 06:03:45;;;;;;;;;;;;;;;27.29;59.38;154522.47;1716724;83;20678;-62
2022/07/03 06:06:11;;;;;;;;;;;;;;;27.33;59.72;154531.67;1717087;82;20181;-61
2022/07/03 06:08:38;;;;;;;;;;;;;;;27.35;59.37;154538.25;1716873;83;20187;-61
2022/07/03 06:11:04;;;;;;;;;;;;;;;27.36;58.77;154540.88;1705399;83;20315;-62
2022/07/03 06:13:31;;;;;;;;;;;;;;;27.40;57.94;154550.02;1696680;84;21231;-62
2022/07/03 06:15:58;;;;;;;;;;;;;;;27.42;57.38;154556.59;1696722;84;20198;-62
2022/07/03 06:18:25;;;;;;;;;;;;;;;27.45;57.49;154564.47;1696559;82;20209;-62
2022/07/03 06:20:52;;;;;;;;;;;;;;;27.46;57.49;154567.08;1734652;81;20130;-64
2022/07/03 06:23:19;;;;;;;;;;;;;;;27.48;57.31;154571.03;1734386;82;20170;-62
2022/07/03 06:25:46;;;;;;;;;;;;;;;27.51;57.51;154577.56;1734701;82;21255;-62
2022/07/03 06:28:13;;;;;;;;;;;;;;;27.51;57.16;154578.95;1734277;82;20173;-63
2022/07/03 06:30:40;;;;;;;;;;;;;;;27.53;57.36;154584.19;1734416;82;20193;-62
2022/07/03 06:33:06;;;;;;;;;;;;;;;27.58;56.96;154596.02;1734550;82;20177;-62
2022/07/03 06:35:33;;;;;;;;;;;;;;;27.58;57.43;154597.30;1734368;82;20201;-63
2022/07/03 06:38:03;;;;;;;;;;;;;;;27.60;57.14;154601.25;1734463;82;21247;-62
2022/07/03 06:40:30;;;;;;;;;;;;;;;27.56;57.47;154590.78;1734184;82;20721;-62
2022/07/03 06:42:57;;;;;;;;;;;;;;;27.55;57.91;154589.44;1734365;82;20181;-60
2022/07/03 06:45:23;;;;;;;;;;;;;;;27.55;58.20;154588.16;1734239;82;20169;-60
2022/07/03 06:47:50;;;;;;;;;;;;;;;27.57;58.53;154593.39;1734508;82;20482;-61
2022/07/03 06:50:17;;;;;;;;;;;;;;;27.55;58.52;154588.16;1734221;82;22083;-62
2022/07/03 06:52:44;;;;;;;;;;;;;;;27.52;58.86;154580.23;1734374;82;20118;-61
2022/07/03 06:55:10;;;;;;;;;;;;;;;27.58;59.00;154597.30;1734416;82;20207;-61
2022/07/03 06:57:38;;;;;;;;;;;;;;;27.63;58.89;154607.78;1734407;82;20155;-62
2022/07/03 07:00:07;;;;;;;;;;;;;;;27.66;59.04;154615.70;1734472;82;20173;-61
2022/07/03 07:02:34;;;;;;;;;;;;;;;27.72;58.62;154632.72;1734295;82;21781;-62
2022/07/03 07:05:01;;;;;;;;;;;;;;;27.73;58.23;154635.34;1734345;82;20166;-61
2022/07/03 07:07:29;;;;;;;;;;;;;;;27.78;57.99;154645.88;1734288;82;20182;-62
2022/07/03 07:09:55;;;;;;;;;;;;;;;27.78;57.89;154645.88;1730708;82;20426;-62
2022/07/03 07:12:22;;;;;;;;;;;;;;;27.77;58.07;154644.55;1696733;83;20213;-62
2022/07/03 07:14:49;;;;;;;;;;;;;;;27.77;57.92;154643.25;1696819;84;20516;-61
2022/07/03 07:17:15;;;;;;;;;;;;;;;27.79;57.42;154648.50;1696548;83;20206;-62
2022/07/03 07:19:42;;;;;;;;;;;;;;;27.79;57.53;154648.50;1697080;84;20161;-62
2022/07/03 07:22:09;;;;;;;;;;;;;;;27.74;57.37;154638.02;1696730;84;20237;-62
2022/07/03 07:24:36;;;;;;;;;;;;;;;27.72;57.27;154632.72;1696703;84;20234;-62
2022/07/03 07:27:04;;;;;;;;;;;;;;;27.68;57.20;154622.23;1696686;84;21138;-61
2022/07/03 07:29:30;;;;;;;;;;;;;;;27.62;56.50;154605.16;1696550;84;20230;-61
2022/07/03 07:31:57;;;;;;;;;;;;;;;27.57;56.44;154593.39;1696513;84;20212;-62
2022/07/03 07:34:23;;;;;;;;;;;;;;;27.58;56.74;154596.02;1696347;84;20256;-61
2022/07/03 07:36:50;;;;;;;;;;;;;;;27.65;56.62;154614.38;1696321;84;20210;-61
2022/07/03 07:39:17;;;;;;;;;;;;;;;27.71;56.41;154630.09;1697960;83;21314;-61
2022/07/03 07:41:44;;;;;;;;;;;;;;;27.78;56.04;154645.88;1700736;84;20149;-61
2022/07/03 07:44:11;;;;;;;;;;;;;;;27.85;54.96;154665.56;1700550;84;20419;-61
2022/07/03 07:46:38;;;;;;;;;;;;;;;27.90;54.11;154677.34;1700428;84;20147;-61
2022/07/03 07:49:06;;;;;;;;;;;;;;;27.93;52.96;154685.20;1700537;84;20126;-60
2022/07/03 07:51:33;;;;;;;;;;;;;;;27.97;52.58;154695.75;1700323;84;22158;-60
2022/07/03 07:54:00;;;;;;;;;;;;;;;27.99;52.42;154700.98;1700463;84;20214;-60
2022/07/03 07:56:27;;;;;;;;;;;;;;;28.01;51.66;154706.23;1700376;83;20178;-60
2022/07/03 07:58:53;;;;;;;;;;;;;;;28.05;51.42;154714.09;1700569;84;20203;-61
2022/07/03 08:06:50;;;;;;;;;;;;;;;28.12;50.38;154732.45;1699609;83;20189;-61
2022/07/03 08:09:17;;;;;;;;;;;;;;;28.14;49.72;154739.03;1705975;84;20182;-62
2022/07/03 08:11:44;;;;;;;;;;;;;;;28.18;49.41;154746.94;1691137;84;20758;-62
2022/07/03 08:14:11;;;;;;;;;;;;;;;28.16;50.22;154742.98;1688461;85;20507;-63
2022/07/03 08:16:42;;;;;;;;;;;;;;;28.19;50.29;154750.91;1688120;85;22155;-63
2022/07/03 08:19:08;;;;;;;;;;;;;;;28.19;49.37;154749.56;1688369;85;20130;-63
2022/07/03 08:21:35;;;;;;;;;;;;;;;28.15;50.32;154741.70;1688384;85;20431;-63
2022/07/03 08:24:03;;;;;;;;;;;;;;;28.17;50.61;154745.61;1688243;85;20227;-63
2022/07/03 08:26:30;;;;;;;;;;;;;;;28.19;50.86;154750.91;1688072;85;20116;-63
2022/07/03 08:28:57;;;;;;;;;;;;;;;28.20;51.57;154753.53;1688265;85;22167;-63
2022/07/03 08:31:24;;;;;;;;;;;;;;;28.19;51.88;154749.56;1688239;85;20211;-63
2022/07/03 08:33:50;;;;;;;;;;;;;;;28.17;52.02;154745.61;1688310;85;20210;-63
2022/07/03 08:36:17;;;;;;;;;;;;;;;28.14;51.05;154739.03;1688082;85;20499;-63
2022/07/03 08:38:45;;;;;;;;;;;;;;;28.12;51.41;154732.45;1664710;85;20194;-63
2022/07/03 08:41:12;;;;;;;;;;;;;;;28.11;51.45;154729.83;1688385;85;20674;-63
2022/07/03 08:43:39;;;;;;;;;;;;;;;28.14;51.25;154739.03;1688235;85;20432;-63
2022/07/03 08:46:06;;;;;;;;;;;;;;;28.15;51.35;154740.31;1688372;85;20179;-63
2022/07/03 08:48:33;;;;;;;;;;;;;;;28.17;50.19;154745.61;1688109;85;20484;-63
2022/07/03 08:51:00;;;;;;;;;;;;;;;28.18;50.91;154746.94;1688123;85;20175;-63
2022/07/03 08:53:26;;;;;;;;;;;;;;;28.15;51.37;154741.70;1687916;85;21269;-63
2022/07/03 08:55:53;;;;;;;;;;;;;;;28.15;52.08;154740.31;1688111;85;20211;-63
2022/07/03 08:58:22;;;;;;;;;;;;;;;28.20;50.23;154753.53;1687976;85;20475;-62
2022/07/03 09:00:49;;;;;;;;;;;;;;;28.22;50.98;154758.78;1688473;85;20130;-63
2022/07/03 09:03:16;;;;;;;;;;;;;;;28.20;49.32;154753.53;1688099;85;20166;-63
2022/07/03 09:08:31;;;;;;;;;;;;;;;28.24;50.20;154762.69;1676961;85;20416;-63
2022/07/03 09:10:58;;;;;;;;;;;;;;;28.27;51.41;154770.55;1667903;85;20178;-63
2022/07/03 09:13:26;;;;;;;;;;;;;;;28.27;50.41;154771.89;1660045;86;20500;-63
2022/07/03 09:15:53;;;;;;;;;;;;;;;28.27;51.18;154771.89;1713562;82;20231;-63
2022/07/03 09:18:26;;;;;;;;;;;;;;;28.26;50.25;154769.27;1713583;83;21121;-63
2022/07/03 09:20:52;;;;;;;;;;;;;;;28.25;50.03;154766.64;1672097;84;20188;-62
2022/07/03 09:23:20;;;;;;;;;;;;;;;28.25;50.18;154765.31;1616913;86;20183;-63
2022/07/03 09:25:59;;;;;;;;;;;;;;;28.24;50.03;154764.02;1714281;83;20196;-62
2022/07/03 09:28:50;;;;;;;;;;;;;;;28.28;47.96;154774.50;1713749;83;20231;-64
2022/07/03 09:31:18;;;;;;;;;;;;;;;28.38;47.72;154798.11;1713588;83;21184;-62
2022/07/03 09:33:53;;;;;;;;;;;;;;;28.43;46.46;154811.28;1713555;83;20503;-63
2022/07/03 09:36:25;;;;;;;;;;;;;;;28.47;47.75;154821.77;1713475;83;20172;-63
2022/07/03 09:38:52;;;;;;;;;;;;;;;28.58;49.02;154850.61;1712040;83;20168;-63
2022/07/03 09:41:18;;;;;;;;;;;;;;;28.67;48.91;154871.66;1713542;83;20188;-64
2022/07/03 09:43:45;;;;;;;;;;;;;;;28.76;49.23;154895.25;1713577;83;21217;-63
2022/07/03 09:46:12;;;;;;;;;;;;;;;28.80;49.04;154905.80;1713585;83;20175;-62
2022/07/03 09:48:41;;;;;;;;;;;;;;;28.78;49.14;154900.50;1713554;83;20165;-63
2022/07/03 09:51:09;;;;;;;;;;;;;;;28.74;48.08;154890.00;1713765;83;21652;-64
2022/07/03 09:53:50;;;;;;;;;;;;;;;28.67;49.47;154871.66;1705945;83;20118;-63
2022/07/03 09:56:18;;;;;;;;;;;;;;;28.53;50.01;154837.50;1677557;84;22248;-63
2022/07/03 09:59:07;;;;;;;;;;;;;;;28.40;50.99;154803.36;1683761;84;20144;-63
2022/07/03 10:01:44;;;;;;;;;;;;;;;28.37;51.92;154795.48;1683649;85;20225;-62
2022/07/03 10:04:19;;;;;;;;;;;;;;;28.31;52.50;154782.37;1683867;85;20131;-62
2022/07/03 10:06:48;;;;;;;;;;;;;;;28.27;52.58;154770.55;1690368;83;20266;-63
2022/07/03 10:09:16;;;;;;;;;;;;;;;28.21;53.09;154756.16;1746776;81;22075;-63
2022/07/03 10:11:43;;;;;;;;;;;;;;;28.19;53.05;154749.56;1745480;82;20163;-63
2022/07/03 10:14:15;;;;;;;;;;;;;;;28.18;52.93;154748.23;1745231;82;20178;-62
2022/07/03 10:16:43;;;;;;;;;;;;;;;28.15;53.42;154740.31;1745107;82;20205;-63
2022/07/03 10:19:17;;;;;;;;;;;;;;;28.14;53.09;154737.69;1745161;82;20198;-63
2022/07/03 10:21:43;;;;;;;;;;;;;;;28.06;53.05;154716.72;1745017;82;21221;-63
2022/07/03 10:24:10;;;;;;;;;;;;;;;27.97;53.05;154695.75;1745118;82;20135;-62
2022/07/03 10:26:37;;;;;;;;;;;;;;;27.94;53.60;154687.83;1744961;82;20438;-62
2022/07/03 10:29:06;;;;;;;;;;;;;;;27.96;53.71;154693.06;1748572;82;20150;-63
2022/07/03 10:31:33;;;;;;;;;;;;;;;27.96;53.84;154693.06;1745139;82;20907;-63
2022/07/03 10:33:59;;;;;;;;;;;;;;;28.07;54.17;154719.34;1745013;82;21904;-63
2022/07/03 10:36:26;;;;;;;;;;;;;;;28.16;54.08;154742.98;1744959;82;20203;-63
2022/07/03 10:38:53;;;;;;;;;;;;;;;28.19;53.61;154750.91;1745107;82;20467;-64
2022/07/03 10:47:03;;;;;;;;;;;;;;;27.92;54.14;154682.59;1744971;82;21810;-62
2022/07/03 10:49:30;;;;;;;;;;;;;;;27.78;55.07;154645.88;1745166;82;20178;-63
2022/07/03 10:51:59;;;;;;;;;;;;;;;27.72;55.37;154632.72;1745081;82;20198;-63
2022/07/03 10:54:30;;;;;;;;;;;;;;;27.69;55.39;154624.86;1745192;81;20126;-63
2022/07/03 10:57:04;;;;;;;;;;;;;;;27.64;54.67;154610.47;1745117;81;20225;-63
2022/07/03 10:59:42;;;;;;;;;;;;;;;27.63;55.09;154609.13;1745059;81;20376;-63
2022/07/03 11:02:37;;;;;;;;;;;;;;;27.61;54.50;154603.88;1745192;82;20214;-63
2022/07/03 11:05:06;;;;;;;;;;;;;;;27.54;54.44;154585.53;1745360;82;20202;-63
2022/07/03 11:07:44;;;;;;;;;;;;;;;27.48;52.95;154569.70;1744012;82;20342;-63
2022/07/03 11:10:18;;;;;;;;;;;;;;;27.43;51.93;154557.94;1743262;82;20576;-63
2022/07/03 11:13:00;;;;;;;;;;;;;;;27.44;53.26;154561.84;1743078;82;21260;-62
2022/07/03 11:15:40;;;;;;;;;;;;;;;27.43;55.00;154559.22;1742908;82;20263;-63
2022/07/03 11:18:10;;;;;;;;;;;;;;;27.45;53.80;154563.17;1743272;82;20190;-63
2022/07/03 11:20:43;;;;;;;;;;;;;;;27.44;50.81;154561.84;1743040;82;20173;-63
2022/07/03 11:23:26;;;;;;;;;;;;;;;27.43;52.29;154559.22;1743081;82;20213;-63
2022/07/03 11:25:56;;;;;;;;;;;;;;;27.42;52.62;154556.59;1743123;82;21258;-63
2022/07/03 11:28:35;;;;;;;;;;;;;;;27.40;52.97;154551.34;1742828;82;20186;-63
2022/07/03 11:33:58;;;;;;;;;;;;;;;27.35;52.85;154538.25;1742952;82;20532;-62
2022/07/03 11:36:29;;;;;;;;;;;;;;;27.31;50.46;154527.77;1743062;82;20143;-63
2022/07/03 11:38:59;;;;;;;;;;;;;;;27.26;48.55;154514.61;1742948;82;21413;-63
2022/07/03 11:41:27;;;;;;;;;;;;;;;27.25;48.44;154511.98;1741193;82;20315;-63
2022/07/03 11:43:57;;;;;;;;;;;;;;;27.25;48.04;154511.98;1719794;82;20183;-63
2022/07/03 11:46:26;;;;;;;;;;;;;;;27.26;49.14;154515.94;1714758;83;20468;-62
2022/07/03 11:49:12;;;;;;;;;;;;;;;27.26;49.16;154515.94;1714818;83;20207;-62
2022/07/03 11:51:41;;;;;;;;;;;;;;;27.26;51.59;154515.94;1714948;83;21114;-62
2022/07/03 11:54:08;;;;;;;;;;;;;;;27.17;50.04;154492.31;1715003;83;20160;-63
2022/07/03 11:56:35;;;;;;;;;;;;;;;27.09;52.57;154471.34;1714814;83;20226;-63
2022/07/03 11:59:04;;;;;;;;;;;;;;;27.07;53.51;154466.09;1714842;83;20204;-63
2022/07/03 12:01:37;;;;;;;;;;;;;;;27.03;53.68;154456.91;1714809;83;20187;-63
2022/07/03 12:04:10;;;;;;;;;;;;;;;26.98;55.09;154443.80;1714778;83;21247;-63
2022/07/03 12:06:40;;;;;;;;;;;;;;;26.93;54.62;154430.70;1714592;83;20630;-63
2022/07/03 12:09:22;;;;;;;;;;;;;;;26.91;54.69;154425.45;1732348;82;20163;-63
2022/07/03 12:12:01;;;;;;;;;;;;;;;26.91;55.03;154425.45;1706140;84;20210;-63
2022/07/03 12:14:43;;;;;;;;;;;;;;;26.91;56.40;154425.45;1680781;85;20184;-64
2022/07/03 12:17:11;;;;;;;;;;;;;;;26.85;55.43;154411.02;1685267;85;20748;-63
2022/07/03 12:19:40;;;;;;;;;;;;;;;26.82;56.06;154404.39;1684660;85;20199;-63
2022/07/03 12:22:07;;;;;;;;;;;;;;;26.82;56.09;154404.39;1686754;83;20199;-62
2022/07/03 12:24:34;;;;;;;;;;;;;;;26.82;55.98;154403.11;1663478;85;20202;-63
2022/07/03 12:27:05;;;;;;;;;;;;;;;26.79;55.98;154395.25;1685210;85;20475;-63
2022/07/03 12:29:32;;;;;;;;;;;;;;;26.78;56.00;154393.91;1684785;85;21843;-64
2022/07/03 12:31:59;;;;;;;;;;;;;;;26.77;54.63;154391.28;1685120;85;20151;-63
2022/07/03 12:34:25;;;;;;;;;;;;;;;26.73;52.92;154380.81;1685108;85;20210;-64
2022/07/03 12:36:59;;;;;;;;;;;;;;;26.72;53.41;154378.19;1685031;84;20226;-64
2022/07/03 12:39:46;;;;;;;;;;;;;;;26.69;51.84;154370.33;1685009;85;20202;-63
2022/07/03 12:42:18;;;;;;;;;;;;;;;26.66;52.63;154362.47;1680647;85;21250;-62
2022/07/03 12:45:02;;;;;;;;;;;;;;;26.67;56.26;154365.09;1680916;85;20134;-62
2022/07/03 12:47:31;;;;;;;;;;;;;;;26.67;58.06;154366.38;1686325;85;20496;-63
2022/07/03 12:50:01;;;;;;;;;;;;;;;26.66;57.79;154363.75;1686695;85;20183;-63
2022/07/03 12:52:29;;;;;;;;;;;;;;;26.68;58.35;154367.70;1685957;85;20147;-63
2022/07/03 12:54:55;;;;;;;;;;;;;;;26.65;58.47;154361.13;1686814;85;21156;-64
2022/07/03 13:00:17;;;;;;;;;;;;;;;26.67;59.43;154366.38;1686546;85;20239;-63
2022/07/03 13:02:44;;;;;;;;;;;;;;;26.73;59.29;154380.81;1686597;85;20156;-62
2022/07/03 13:05:19;;;;;;;;;;;;;;;26.75;58.50;154386.05;1686738;85;20582;-63
2022/07/03 13:07:47;;;;;;;;;;;;;;;26.74;57.06;154384.72;1686397;85;21904;-63
2022/07/03 13:10:15;;;;;;;;;;;;;;;26.72;52.85;154378.19;1691764;83;20197;-63